createdAt,value
2023-04-03T00:00:58.455Z,84.55
2023-04-03T00:03:25.515Z,84.62
2023-04-03T00:05:52.748Z,84.59
2023-04-03T00:08:19.942Z,84.62
2023-04-03T00:10:46.841Z,84.43
2023-04-03T00:13:13.990Z,84.17
2023-04-03T00:15:41.696Z,83.25
2023-04-03T00:18:08.916Z,83.04
2023-04-03T00:20:36.257Z,82.65
2023-04-03T00:23:03.618Z,83.10
2023-04-03T00:25:30.695Z,83.21
2023-04-03T00:27:57.649Z,83.03
2023-04-03T00:30:25.002Z,82.16
2023-04-03T00:32:52.983Z,81.43
2023-04-03T00:35:22.035Z,82.46
2023-04-03T00:37:51.947Z,83.52
2023-04-03T00:40:19.284Z,82.91
2023-04-03T00:42:49.150Z,83.11
2023-04-03T00:45:19.181Z,82.82
2023-04-03T00:47:46.578Z,83.73
2023-04-03T00:50:13.644Z,84.09
2023-04-03T00:52:41.108Z,84.52
2023-04-03T00:55:10.821Z,84.43
2023-04-03T00:57:38.723Z,84.18
2023-04-03T01:00:13.593Z,84.74
2023-04-03T01:02:42.179Z,85.11
2023-04-03T01:05:11.714Z,85.14
2023-04-03T01:07:39.668Z,85.65
2023-04-03T01:10:10.300Z,85.31
2023-04-03T01:12:46.897Z,85.28
2023-04-03T01:15:14.934Z,84.92
2023-04-03T01:17:51.846Z,85.43
2023-04-03T01:20:37.624Z,85.53
2023-04-03T01:23:13.267Z,86.37
2023-04-03T01:25:48.875Z,86.50
2023-04-03T01:28:22.204Z,85.74
2023-04-03T01:31:04.606Z,86.26
2023-04-03T01:33:34.273Z,86.60
2023-04-03T01:36:01.267Z,86.89
2023-04-03T01:38:29.352Z,86.74
2023-04-03T01:40:56.296Z,86.69
2023-04-03T01:43:23.784Z,86.93
2023-04-03T01:45:51.288Z,87.23
2023-04-03T01:48:18.196Z,87.88
2023-04-03T01:50:45.124Z,87.67
2023-04-03T01:53:12.128Z,87.56
2023-04-03T01:55:39.147Z,89.89
2023-04-03T01:58:06.229Z,90.51
2023-04-03T02:00:33.350Z,92.18
2023-04-03T02:03:00.564Z,91.60
2023-04-03T02:05:27.844Z,92.48
2023-04-03T02:07:54.971Z,92.10
2023-04-03T02:10:21.988Z,96.19
2023-04-03T02:12:49.045Z,94.53
2023-04-03T02:15:19.198Z,94.03
2023-04-03T02:17:46.354Z,94.56
2023-04-03T02:20:14.784Z,96.06
2023-04-03T02:22:42.058Z,95.51
2023-04-03T02:25:09.593Z,94.94
2023-04-03T02:27:36.733Z,95.81
2023-04-03T02:30:04.948Z,97.35
2023-04-03T02:32:32.710Z,97.46
2023-04-03T02:35:00.358Z,96.71
2023-04-03T02:37:28.015Z,98.64
2023-04-03T02:39:55.293Z,97.34
2023-04-03T02:42:22.745Z,95.93
2023-04-03T02:44:49.756Z,96.19
2023-04-03T02:47:17.342Z,96.29
2023-04-03T02:49:46.283Z,94.01
2023-04-03T02:52:16.544Z,92.40
2023-04-03T02:54:43.706Z,93.55
2023-04-03T02:57:11.773Z,91.95
2023-04-03T02:59:41.788Z,90.32
2023-04-03T03:02:11.199Z,90.46
2023-04-03T03:04:38.668Z,90.42
2023-04-03T03:07:05.786Z,88.67
2023-04-03T03:09:33.069Z,88.54
2023-04-03T03:12:00.040Z,88.84
2023-04-03T03:14:27.139Z,87.19
2023-04-03T03:16:54.338Z,84.89
2023-04-03T03:19:21.461Z,84.47
2023-04-03T03:21:48.950Z,84.91
2023-04-03T03:24:17.217Z,83.65
2023-04-03T03:26:44.618Z,82.81
2023-04-03T03:29:12.333Z,83.18
2023-04-03T03:31:39.552Z,85.28
2023-04-03T03:34:07.508Z,85.20
2023-04-03T03:36:34.555Z,86.20
2023-04-03T03:39:02.903Z,88.04
2023-04-03T03:41:30.039Z,87.40
2023-04-03T03:43:57.034Z,87.34
2023-04-03T03:46:24.643Z,86.93
2023-04-03T03:48:53.836Z,92.18
2023-04-03T03:51:20.868Z,88.76
2023-04-03T03:53:48.090Z,88.96
2023-04-03T03:56:18.570Z,89.45
2023-04-03T03:58:46.720Z,90.48
2023-04-03T04:01:14.567Z,90.62
2023-04-03T04:03:46.469Z,90.88
2023-04-03T04:06:18.403Z,91.36
2023-04-03T04:08:46.043Z,91.05
2023-04-03T04:11:14.849Z,90.08
2023-04-03T04:13:43.012Z,89.77
2023-04-03T04:16:12.441Z,89.69
2023-04-03T04:18:39.454Z,90.01
2023-04-03T04:21:06.590Z,87.19
2023-04-03T04:23:33.652Z,85.74
2023-04-03T04:26:01.758Z,86.93
2023-04-03T04:28:32.484Z,85.09
2023-04-03T04:31:01.152Z,82.98
2023-04-03T04:33:29.324Z,82.10
2023-04-03T04:35:58.788Z,82.44
2023-04-03T04:38:26.144Z,79.94
2023-04-03T04:40:54.375Z,77.81
2023-04-03T04:43:22.079Z,78.29
2023-04-03T04:46:04.097Z,78.33
2023-04-03T04:48:34.951Z,78.10
2023-04-03T04:51:03.146Z,76.19
2023-04-03T04:53:30.070Z,75.49
2023-04-03T04:55:57.348Z,75.17
2023-04-03T04:58:24.538Z,74.15
2023-04-03T05:01:02.716Z,72.46
2023-04-03T05:03:31.098Z,72.69
2023-04-03T05:05:58.106Z,72.65
2023-04-03T05:08:25.186Z,71.77
2023-04-03T05:10:54.230Z,69.72
2023-04-03T05:13:22.746Z,69.95
2023-04-03T05:15:49.912Z,70.27
2023-04-03T05:18:17.133Z,69.25
2023-04-03T05:20:44.653Z,67.46
2023-04-03T05:23:12.488Z,67.34
2023-04-03T05:25:40.552Z,65.62
2023-04-03T05:28:09.037Z,65.05
2023-04-03T05:30:36.147Z,61.77
2023-04-03T05:33:04.287Z,61.84
2023-04-03T05:35:42.555Z,62.13
2023-04-03T05:38:13.012Z,62.41
2023-04-03T05:40:40.229Z,63.05
2023-04-03T05:43:07.653Z,62.38
2023-04-03T05:45:37.968Z,61.41
2023-04-03T05:48:05.441Z,58.13
2023-04-03T05:50:34.011Z,54.58
2023-04-03T05:53:03.419Z,53.15
2023-04-03T05:55:32.667Z,53.28
2023-04-03T05:58:00.016Z,50.73
2023-04-03T06:00:26.955Z,48.96
2023-04-03T06:03:01.253Z,46.99
2023-04-03T06:05:33.142Z,48.16
2023-04-03T06:08:00.180Z,47.56
2023-04-03T06:10:27.280Z,46.28
2023-04-03T06:12:54.147Z,43.70
2023-04-03T06:15:22.240Z,41.43
2023-04-03T06:17:49.365Z,43.62
2023-04-03T06:20:16.774Z,45.44
2023-04-03T06:22:43.909Z,44.64
2023-04-03T06:25:12.299Z,42.00
2023-04-03T06:27:39.591Z,42.68
2023-04-03T06:30:08.298Z,37.62
2023-04-03T06:32:35.322Z,38.90
2023-04-03T06:35:02.217Z,37.93
2023-04-03T06:37:33.424Z,41.39
2023-04-03T06:40:01.538Z,38.53
2023-04-03T06:42:28.595Z,36.79
2023-04-03T06:45:01.860Z,35.99
2023-04-03T06:47:29.048Z,37.35
2023-04-03T06:49:56.073Z,32.85
2023-04-03T06:52:23.139Z,33.87
2023-04-03T06:54:50.396Z,32.54
2023-04-03T06:57:17.437Z,30.90
2023-04-03T06:59:44.696Z,35.60
2023-04-03T07:02:14.253Z,37.69
2023-04-03T07:04:41.497Z,37.54
2023-04-03T07:07:08.798Z,37.52
2023-04-03T07:09:35.939Z,41.05
2023-04-03T07:12:02.938Z,41.83
2023-04-03T07:14:29.767Z,43.35
2023-04-03T07:16:56.698Z,40.45
2023-04-03T07:19:25.601Z,37.88
2023-04-03T07:21:52.546Z,38.80
2023-04-03T07:24:19.814Z,40.24
2023-04-03T07:40:16.605Z,37.61
2023-04-03T07:42:43.991Z,36.01
2023-04-03T07:45:11.727Z,38.54
2023-04-03T07:47:38.885Z,39.74
2023-04-03T07:50:06.352Z,41.69
2023-04-03T07:52:33.272Z,42.51
2023-04-03T07:55:00.228Z,45.03
2023-04-03T07:57:27.203Z,44.70
2023-04-03T07:59:54.536Z,45.22
2023-04-03T08:02:21.558Z,45.09
2023-04-03T08:04:48.531Z,44.08
2023-04-03T08:07:15.632Z,40.99
2023-04-03T08:09:42.752Z,38.92
2023-04-03T08:12:12.532Z,39.20
2023-04-03T08:14:39.397Z,40.63
2023-04-03T08:17:06.616Z,41.27
2023-04-03T08:19:33.524Z,42.26
2023-04-03T08:22:01.921Z,42.63
2023-04-03T08:24:28.837Z,45.60
2023-04-03T08:26:59.115Z,44.37
2023-04-03T08:29:26.408Z,41.96
2023-04-03T08:31:53.407Z,43.16
2023-04-03T08:34:21.194Z,41.11
2023-04-03T08:36:48.326Z,39.86
2023-04-03T08:39:15.584Z,39.45
2023-04-03T08:41:50.339Z,38.37
2023-04-03T08:44:44.190Z,42.61
2023-04-03T08:47:33.833Z,43.62
2023-04-03T08:50:23.474Z,45.27
2023-04-03T08:52:54.903Z,48.27
2023-04-03T08:55:45.388Z,50.18
2023-04-03T08:58:22.380Z,50.24
2023-04-03T09:01:05.493Z,51.01
2023-04-03T09:03:36.700Z,48.34
2023-04-03T09:06:26.721Z,48.32
2023-04-03T09:09:15.607Z,47.56
2023-04-03T09:11:48.669Z,48.05
2023-04-03T09:14:24.966Z,49.74
2023-04-03T09:16:59.144Z,50.62
2023-04-03T09:19:43.193Z,50.12
2023-04-03T09:22:27.648Z,51.69
2023-04-03T09:25:10.190Z,51.88
2023-04-03T09:27:37.476Z,53.46
2023-04-03T09:30:05.289Z,53.05
2023-04-03T09:32:36.293Z,54.45
2023-04-03T09:35:20.603Z,55.23
2023-04-03T09:37:55.717Z,55.17
2023-04-03T09:40:40.223Z,55.17
2023-04-03T09:43:40.053Z,54.67
2023-04-03T09:46:33.069Z,52.78
2023-04-03T09:49:09.699Z,51.21
2023-04-03T09:51:37.665Z,54.17
2023-04-03T09:54:32.538Z,56.80
2023-04-03T09:57:07.605Z,59.96
2023-04-03T09:59:34.887Z,60.88
2023-04-03T10:02:15.478Z,61.18
2023-04-03T10:04:43.451Z,62.51
2023-04-03T10:07:36.305Z,64.00
2023-04-03T10:10:26.616Z,63.45
2023-04-03T10:13:21.465Z,63.50
2023-04-03T10:16:07.981Z,63.06
2023-04-03T10:18:38.691Z,62.54
2023-04-03T10:21:27.207Z,63.18
2023-04-03T10:24:30.542Z,60.82
2023-04-03T10:27:05.700Z,59.55
2023-04-03T10:29:32.661Z,59.04
2023-04-03T10:32:32.366Z,58.04
2023-04-03T10:35:38.111Z,57.87
2023-04-03T10:38:23.469Z,54.58
2023-04-03T10:41:04.893Z,51.45
2023-04-03T10:43:48.821Z,54.26
2023-04-03T10:46:41.869Z,54.88
2023-04-03T10:49:28.393Z,55.57
2023-04-03T10:52:06.154Z,54.82
2023-04-03T10:55:11.802Z,53.46
2023-04-03T10:57:39.604Z,50.40
2023-04-03T11:00:19.510Z,51.43
2023-04-03T11:02:51.247Z,52.36
2023-04-03T11:05:43.179Z,54.18
2023-04-03T11:08:18.776Z,50.24
2023-04-03T11:10:52.069Z,51.82
2023-04-03T11:13:26.317Z,51.40
2023-04-03T11:15:56.460Z,50.57
2023-04-03T11:18:45.992Z,50.62
2023-04-03T11:21:21.281Z,52.96
2023-04-03T11:23:50.243Z,54.48
2023-04-03T11:26:26.679Z,52.60
2023-04-03T11:28:58.679Z,53.27
2023-04-03T11:31:59.524Z,56.15
2023-04-03T11:34:54.638Z,59.26
2023-04-03T11:37:35.060Z,59.18
2023-04-03T11:40:10.463Z,59.11
2023-04-03T11:42:43.983Z,58.61
2023-04-03T11:45:23.065Z,58.49
2023-04-03T11:47:54.179Z,59.97
2023-04-03T11:50:45.103Z,61.45
2023-04-03T11:53:15.039Z,61.14
2023-04-03T11:55:51.121Z,59.68
2023-04-03T11:58:24.336Z,60.13
2023-04-03T12:00:56.259Z,59.56
2023-04-03T12:03:30.459Z,59.69
2023-04-03T12:06:14.696Z,60.51
2023-04-03T12:08:42.335Z,60.83
2023-04-03T12:11:12.236Z,62.44
2023-04-03T12:13:51.281Z,61.77
2023-04-03T12:16:39.184Z,62.36
2023-04-03T12:19:09.114Z,61.84
2023-04-03T12:21:48.093Z,63.77
2023-04-03T12:24:37.149Z,64.58
2023-04-03T12:27:15.171Z,65.09
2023-04-03T12:29:53.260Z,64.71
2023-04-03T12:32:39.041Z,65.22
2023-04-03T12:35:18.162Z,65.14
2023-04-03T12:38:03.990Z,65.78
2023-04-03T12:40:43.206Z,67.87
2023-04-03T12:43:28.357Z,68.42
2023-04-03T12:46:04.580Z,68.46
2023-04-03T12:49:01.480Z,69.15
2023-04-03T12:51:43.248Z,70.16
2023-04-03T12:54:28.620Z,69.97
2023-04-03T12:57:22.523Z,69.58
2023-04-03T12:59:49.976Z,69.34
2023-04-03T13:02:35.187Z,69.30
2023-04-03T13:05:11.109Z,69.50
2023-04-03T13:07:42.050Z,69.50
2023-04-03T13:10:09.185Z,70.14
2023-04-03T13:12:59.489Z,70.54
2023-04-03T13:15:30.566Z,70.42
2023-04-03T13:17:57.978Z,71.71
2023-04-03T13:20:28.821Z,71.31
2023-04-03T13:23:04.836Z,71.19
2023-04-03T13:25:35.424Z,71.74
2023-04-03T13:28:13.330Z,72.66
2023-04-03T13:30:54.845Z,74.20
2023-04-03T13:33:28.928Z,75.25
2023-04-03T13:36:07.978Z,74.11
2023-04-03T13:38:37.475Z,74.27
2023-04-03T13:41:26.965Z,75.45
2023-04-03T13:44:00.574Z,74.36
2023-04-03T13:46:33.914Z,74.67
2023-04-03T13:49:20.115Z,75.07
2023-04-03T13:51:56.967Z,76.18
2023-04-03T13:54:33.731Z,76.62
2023-04-03T13:57:02.437Z,77.26
2023-04-03T13:59:37.194Z,77.78
2023-04-03T14:02:04.067Z,79.26
2023-04-03T14:04:57.340Z,79.88
2023-04-03T14:07:25.083Z,81.33
2023-04-03T14:09:52.165Z,80.62
2023-04-03T14:12:40.284Z,80.78
2023-04-03T14:15:29.365Z,82.54
2023-04-03T14:17:56.787Z,82.49
2023-04-03T14:20:28.012Z,82.58
2023-04-03T14:22:55.806Z,83.53
2023-04-03T14:25:26.741Z,83.51
2023-04-03T14:27:54.909Z,83.64
2023-04-03T14:30:30.475Z,84.85
2023-04-03T14:32:58.022Z,84.95
2023-04-03T14:35:25.746Z,84.92
2023-04-03T14:37:54.840Z,85.14
2023-04-03T14:40:27.662Z,84.95
2023-04-03T14:42:56.406Z,85.71
2023-04-03T14:45:24.201Z,86.48
2023-04-03T14:47:55.933Z,86.75
2023-04-03T14:50:28.098Z,86.70
2023-04-03T14:52:59.695Z,87.19
2023-04-03T14:55:27.205Z,87.49
2023-04-03T14:57:55.278Z,87.43
2023-04-03T15:00:24.135Z,88.03
2023-04-03T15:02:52.277Z,88.25
2023-04-03T15:05:20.781Z,86.45
2023-04-03T15:07:58.565Z,84.87
2023-04-03T15:10:29.428Z,84.42
2023-04-03T15:12:57.027Z,83.09
2023-04-03T15:15:25.168Z,83.00
2023-04-03T15:17:55.411Z,82.13
2023-04-03T15:20:25.950Z,81.11
2023-04-03T15:22:53.753Z,81.01
2023-04-03T15:25:20.819Z,81.40
2023-04-03T15:27:49.249Z,81.71
2023-04-03T15:30:19.540Z,81.41
2023-04-03T15:32:47.729Z,81.88
2023-04-03T15:35:15.626Z,82.17
2023-04-03T15:37:43.060Z,82.55
2023-04-03T15:40:10.696Z,82.14
2023-04-03T15:42:37.917Z,82.25
2023-04-03T15:45:05.180Z,82.48
2023-04-03T15:47:32.292Z,81.67
2023-04-03T15:49:59.985Z,81.72
2023-04-03T15:52:27.032Z,81.95
2023-04-03T15:54:53.978Z,85.56
2023-04-03T15:57:21.066Z,82.47
2023-04-03T15:59:48.116Z,81.69
2023-04-03T16:02:15.401Z,83.99
2023-04-03T16:04:42.480Z,84.30
2023-04-03T16:07:09.514Z,85.71
2023-04-03T16:09:37.183Z,88.53
2023-04-03T16:12:04.682Z,85.75
2023-04-03T16:14:31.800Z,82.90
2023-04-03T16:17:00.934Z,87.80
2023-04-03T16:19:28.137Z,85.52
2023-04-03T16:21:56.473Z,85.62
2023-04-03T16:24:23.686Z,86.04
2023-04-03T16:26:50.665Z,83.98
2023-04-03T16:29:17.784Z,86.63
2023-04-03T16:31:44.993Z,86.92
2023-04-03T16:34:12.818Z,88.43
2023-04-03T16:36:39.877Z,86.78
2023-04-03T16:39:10.774Z,88.21
2023-04-03T16:41:38.033Z,86.95
2023-04-03T16:44:05.100Z,86.09
2023-04-03T16:46:32.151Z,86.01
2023-04-03T16:48:59.192Z,86.84
2023-04-03T16:51:26.540Z,86.71
2023-04-03T16:53:53.739Z,85.44
2023-04-03T16:56:21.361Z,85.68
2023-04-03T16:58:49.799Z,85.26
2023-04-03T17:01:19.226Z,86.72
2023-04-03T17:03:46.539Z,84.35
2023-04-03T17:06:18.907Z,85.17
2023-04-03T17:08:48.568Z,86.24
2023-04-03T17:11:30.301Z,85.16
2023-04-03T17:13:57.450Z,84.31
2023-04-03T17:16:25.734Z,87.12
2023-04-03T17:18:54.223Z,87.92
2023-04-03T17:21:21.978Z,87.06
2023-04-03T17:23:55.533Z,88.61
2023-04-03T17:26:22.474Z,87.06
2023-04-03T17:28:49.496Z,87.23
2023-04-03T17:31:16.875Z,91.14
2023-04-03T17:33:44.011Z,88.47
2023-04-03T17:36:11.316Z,88.47
2023-04-03T17:38:38.311Z,88.81
2023-04-03T17:41:08.337Z,89.41
2023-04-03T17:43:36.277Z,88.35
2023-04-03T17:46:05.793Z,89.02
2023-04-03T17:48:34.443Z,89.19
2023-04-03T17:51:09.222Z,89.21
2023-04-03T17:53:36.318Z,90.20
2023-04-03T17:56:08.567Z,90.01
2023-04-03T17:58:36.223Z,89.09
2023-04-03T18:01:20.228Z,89.53
2023-04-03T18:03:48.855Z,90.06
2023-04-03T18:06:18.902Z,89.28
2023-04-03T18:08:51.922Z,91.90
2023-04-03T18:11:20.232Z,90.70
2023-04-03T18:13:47.334Z,89.32
2023-04-03T18:16:15.185Z,90.84
2023-04-03T18:18:42.163Z,92.58
2023-04-03T18:21:10.966Z,91.70
2023-04-03T18:23:41.739Z,95.56
2023-04-03T18:26:11.171Z,95.57
2023-04-03T18:28:40.189Z,94.83
2023-04-03T18:31:11.016Z,96.85
2023-04-03T18:33:38.183Z,98.54
2023-04-03T18:36:05.703Z,96.90
2023-04-03T18:38:32.700Z,97.27
2023-04-03T18:41:04.861Z,98.53
2023-04-03T18:43:32.183Z,96.45
2023-04-03T18:45:59.132Z,97.48
2023-04-03T18:48:26.126Z,98.74
2023-04-03T18:50:53.023Z,95.78
2023-04-03T18:53:19.952Z,95.20
2023-04-03T18:55:46.915Z,95.36
2023-04-03T18:58:13.886Z,92.91
2023-04-03T19:00:41.928Z,92.74
2023-04-03T19:03:10.936Z,99.05
2023-04-03T19:05:37.822Z,93.30
2023-04-03T19:08:05.192Z,91.58
2023-04-03T19:10:32.149Z,93.88
2023-04-03T19:12:59.304Z,92.56
2023-04-03T19:15:27.047Z,92.12
2023-04-03T19:17:54.118Z,92.93
2023-04-03T19:20:21.497Z,93.44
2023-04-03T19:22:48.567Z,92.49
2023-04-03T19:25:15.642Z,92.27
2023-04-03T19:27:42.712Z,93.11
2023-04-03T19:41:56.113Z,100.00
2023-04-03T19:44:23.086Z,99.70
2023-04-03T19:46:50.806Z,98.89
2023-04-03T19:49:19.605Z,100.00
2023-04-03T19:51:46.565Z,100.00
2023-04-03T19:54:13.781Z,99.45
2023-04-03T19:56:40.944Z,99.71
2023-04-03T19:59:07.914Z,100.00
2023-04-03T20:01:35.448Z,99.00
2023-04-03T20:04:02.989Z,97.32
2023-04-03T20:06:29.894Z,100.00
2023-04-03T20:08:57.047Z,98.57
2023-04-03T20:11:25.281Z,97.49
2023-04-03T20:13:54.223Z,98.47
2023-04-03T20:16:26.230Z,98.16
2023-04-03T20:18:57.242Z,97.90
2023-04-03T20:21:32.326Z,98.37
2023-04-03T20:24:00.785Z,99.91
2023-04-03T20:26:29.897Z,98.95
2023-04-03T20:28:58.902Z,98.55
2023-04-03T20:31:28.252Z,99.26
2023-04-03T20:33:55.287Z,99.01
2023-04-03T20:36:23.606Z,98.72
2023-04-03T20:38:52.387Z,98.75
2023-04-03T20:41:19.560Z,100.00
2023-04-03T20:43:47.965Z,100.00
2023-04-03T20:46:19.515Z,100.00
2023-04-03T20:48:48.223Z,100.00
2023-04-03T20:51:19.180Z,100.00
2023-04-03T20:53:47.597Z,100.00
2023-04-03T20:56:16.029Z,100.00
2023-04-03T20:58:46.418Z,100.00
2023-04-03T21:01:20.008Z,100.00
2023-04-03T21:03:48.967Z,100.00
2023-04-03T21:06:53.105Z,100.00
2023-04-03T21:09:57.150Z,100.00
2023-04-03T21:13:01.803Z,100.00
2023-04-03T21:15:47.572Z,100.00
2023-04-03T21:18:32.559Z,100.00
2023-04-03T21:21:01.437Z,100.00
2023-04-03T21:23:29.539Z,100.00
2023-04-03T21:25:57.828Z,100.00
2023-04-03T21:28:25.174Z,100.00
2023-04-03T21:30:52.400Z,100.00
2023-04-03T21:33:19.373Z,100.00
2023-04-03T21:35:46.465Z,100.00
2023-04-03T21:38:15.984Z,100.00
2023-04-03T21:40:46.789Z,100.00
2023-04-03T21:43:13.908Z,100.00
2023-04-03T21:45:40.985Z,100.00
2023-04-03T21:48:10.320Z,100.00
2023-04-03T21:50:37.456Z,100.00
2023-04-03T21:53:04.585Z,100.00
2023-04-03T21:55:31.613Z,100.00
2023-04-03T21:57:58.690Z,100.00
2023-04-03T22:00:25.759Z,100.00
2023-04-03T22:02:57.818Z,100.00
2023-04-03T22:05:36.148Z,100.00
2023-04-03T22:08:04.293Z,100.00
2023-04-03T22:10:31.817Z,100.00
2023-04-03T22:12:58.785Z,100.00
2023-04-03T22:15:26.248Z,100.00
2023-04-03T22:17:53.297Z,100.00
2023-04-03T22:20:20.832Z,100.00
2023-04-03T22:22:50.880Z,100.00
2023-04-03T22:25:17.835Z,100.00
2023-04-03T22:27:44.903Z,100.00
2023-04-03T22:30:12.397Z,100.00
2023-04-03T22:32:39.452Z,100.00
2023-04-03T22:35:07.120Z,100.00
2023-04-03T22:37:34.269Z,100.00
2023-04-03T22:40:01.726Z,100.00
2023-04-03T22:42:28.678Z,100.00
2023-04-03T22:44:55.710Z,100.00
2023-04-03T22:47:22.649Z,100.00
2023-04-03T22:49:49.598Z,100.00
2023-04-03T22:52:19.030Z,100.00
2023-04-03T22:54:46.154Z,100.00
2023-04-03T22:57:13.078Z,100.00
2023-04-03T22:59:39.947Z,100.00
2023-04-03T23:02:06.929Z,100.00
2023-04-03T23:04:34.054Z,100.00
2023-04-03T23:07:01.141Z,100.00
2023-04-03T23:09:28.604Z,100.00
2023-04-03T23:11:55.618Z,100.00
2023-04-03T23:14:22.913Z,100.00
2023-04-03T23:16:50.085Z,100.00
2023-04-03T23:19:17.981Z,100.00
2023-04-03T23:21:45.862Z,100.00
2023-04-03T23:24:13.069Z,100.00
2023-04-03T23:26:40.123Z,100.00
2023-04-03T23:29:07.933Z,100.00
2023-04-03T23:31:34.991Z,100.00
2023-04-03T23:34:01.989Z,100.00
2023-04-03T23:36:28.949Z,100.00
2023-04-03T23:38:59.151Z,100.00
2023-04-03T23:41:27.029Z,100.00
2023-04-03T23:43:54.113Z,100.00
2023-04-03T23:46:21.083Z,100.00
2023-04-03T23:48:48.172Z,100.00
2023-04-03T23:51:15.306Z,100.00
2023-04-03T23:53:42.244Z,100.00
2023-04-03T23:56:12.667Z,100.00
2023-04-03T23:58:39.685Z,100.00
